Station History

Weather Underground - logo

Station Historical Data
Daily Summary for January 10, 2018 Units:  Metric    English   Both
« Previous Day
Next Day »
Daily Weekly Monthly Yearly Custom
  High: Low: Average:
Temperature: 15.4 °C 7.6 °C 11.1 °C
Dew Point: 11.2 °C 6.9 °C 9.3 °C
Humidity: 96 % 76 % 89 %
Wind Speed: 5.6 km/h 0 km/h 0.6 km/h
Wind Gust: 5.6 km/h - -
Wind:- - West
Pressure: 1024.3 hPa 1020.9 hPa -
Precipitation: 0 mm    
Historical Graphs
 
 
Tabular Data for January 10, 2018
Time Temperature Dew Point Pressure Wind Wind Speed Wind Gust Humidity Rainfall Rate (Hourly)
16:16 15.4 °C 11.2 °C 1020.9 hPa NW 3.7 km/h 3.7 km/h 76 % 0 mm
16:25 15.2 °C 11 °C 1020.9 hPa NW 5.6 km/h 5.6 km/h 76 % 0 mm
16:31 15.2 °C 11.2 °C 1020.9 hPa WNW 5.6 km/h 5.6 km/h 77 % 0 mm
16:37 15.1 °C 11.2 °C 1021.2 hPa NW 3.7 km/h 3.7 km/h 78 % 0 mm
16:46 14.8 °C 11 °C 1021.2 hPa North 5.6 km/h 5.6 km/h 78 % 0 mm
16:52 14.6 °C 10.9 °C 1021.2 hPa WNW 3.7 km/h   79 % 0 mm
17:00 14.3 °C 10.9 °C 1021.2 hPa Calm     80 % 0 mm
17:06 14.1 °C 10.7 °C 1021.2 hPa WNW 1.6 km/h 1.6 km/h 80 % 0 mm
17:09 14.1 °C 10.7 °C 1021.2 hPa WNW 1.9 km/h 1.9 km/h 80 % 0 mm
17:10 14 °C 10.6 °C 1021.2 hPa Calm     80 % 0 mm
17:11 13.9 °C 10.7 °C 1021.2 hPa Calm     81 % 0 mm
17:12 13.9 °C 10.7 °C 1021.2 hPa Calm     81 % 0 mm
17:13 13.9 °C 10.7 °C 1021.2 hPa Calm     81 % 0 mm
17:18 13.7 °C 10.5 °C 1021.2 hPa Calm     81 % 0 mm
17:27 13.3 °C 10.5 °C 1021.6 hPa Calm     83 % 0 mm
17:36 13 °C 10.3 °C 1021.2 hPa Calm     84 % 0 mm
17:43 12.8 °C 10.3 °C 1021.2 hPa Calm     85 % 0 mm
17:50 12.7 °C 10.6 °C 1021.2 hPa Calm     87 % 0 mm
17:56 12.5 °C 10.4 °C 1021.6 hPa Calm     87 % 0 mm
18:02 12.5 °C 10.4 °C 1021.6 hPa Calm     87 % 0 mm
18:07 12.4 °C 10.5 °C 1021.6 hPa Calm     88 % 0 mm
18:14 12.4 °C 10.4 °C 1021.6 hPa Calm     88 % 0 mm
18:19 12.3 °C 10.4 °C 1021.6 hPa Calm     88 % 0 mm
18:25 12.3 °C 10.4 °C 1021.6 hPa Calm     88 % 0 mm
18:26 12.3 °C 10.4 °C 1021.6 hPa Calm     88 % 0 mm
18:45 11.8 °C 10.1 °C 1021.6 hPa Calm     89 % 0 mm
19:00 11.1 °C 9.7 °C 1021.9 hPa Calm     91 % 0 mm
19:24 10.4 °C 9.3 °C 1022.2 hPa Calm     93 % 0 mm
19:32 10.3 °C 9.3 °C 1022.2 hPa Calm     93 % 0 mm
19:46 10.2 °C 9.1 °C 1022.2 hPa Calm     93 % 0 mm
19:57 9.8 °C 8.8 °C 1022.2 hPa Calm     93 % 0 mm
20:03 9.7 °C 8.6 °C 1022.6 hPa Calm     93 % 0 mm
20:09 9.5 °C 8.4 °C 1022.6 hPa Calm     93 % 0 mm
20:21 9.3 °C 8.4 °C 1022.9 hPa Calm     94 % 0 mm
20:27 9.1 °C 8.2 °C 1022.9 hPa Calm     94 % 0 mm
20:35 8.9 °C 8.1 °C 1022.9 hPa Calm     94 % 0 mm
20:47 9 °C 8.1 °C 1022.9 hPa Calm     94 % 0 mm
20:52 9 °C 8.2 °C 1022.9 hPa Calm     95 % 0 mm
20:57 8.9 °C 8.1 °C 1022.9 hPa Calm     94 % 0 mm
21:02 8.9 °C 8.1 °C 1023.2 hPa Calm     95 % 0 mm
21:29 9.2 °C 8.4 °C 1023.2 hPa Calm     95 % 0 mm
21:35 9.1 °C 8.3 °C 1023.2 hPa Calm     95 % 0 mm
21:42 9 °C 8.2 °C 1023.2 hPa Calm     95 % 0 mm
21:58 8.8 °C 8.1 °C 1023.2 hPa Calm     95 % 0 mm
22:23 8.6 °C 7.8 °C 1023.6 hPa Calm     95 % 0 mm
22:29 8.5 °C 7.7 °C 1023.6 hPa Calm     95 % 0 mm
22:42 8.4 °C 7.6 °C 1023.6 hPa Calm     95 % 0 mm
22:52 8.2 °C 7.4 °C 1023.6 hPa Calm     95 % 0 mm
23:09 7.9 °C 7.1 °C 1023.9 hPa Calm     95 % 0 mm
23:21 7.7 °C 6.9 °C 1024.3 hPa Calm     95 % 0 mm
23:30 7.7 °C 6.9 °C 1024.3 hPa Calm     95 % 0 mm
23:35 7.6 °C 6.9 °C 1024.3 hPa Calm     95 % 0 mm
23:46 7.8 °C 7.2 °C 1024.3 hPa Calm     96 % 0 mm
23:52 7.9 °C 7.3 °C 1024.3 hPa Calm     96 % 0 mm
23:57 7.9 °C 7.3 °C 1024.3 hPa Calm     96 % 0 mm
Park Place, Exeter, Tulare County, California, USA
Compliments of Weather Underground - 1.5 mb